sensor_id;sensor_type;location;lat;lon;timestamp;P1;durP1;ratioP1;P2;durP2;ratioP2
22476;SDS011;65006;51.698;-0.292;2022-11-20T00:02:22;25.52;;;6.60;;
22476;SDS011;65006;51.698;-0.292;2022-11-20T00:04:48;18.52;;;6.57;;
22476;SDS011;65006;51.698;-0.292;2022-11-20T00:07:14;16.13;;;6.30;;
22476;SDS011;65006;51.698;-0.292;2022-11-20T00:09:40;15.80;;;6.65;;
22476;SDS011;65006;51.698;-0.292;2022-11-20T00:12:06;15.60;;;6.88;;
22476;SDS011;65006;51.698;-0.292;2022-11-20T00:14:32;14.80;;;5.97;;
22476;SDS011;65006;51.698;-0.292;2022-11-20T00:16:58;18.38;;;6.50;;
22476;SDS011;65006;51.698;-0.292;2022-11-20T00:19:24;19.48;;;7.20;;
22476;SDS011;65006;51.698;-0.292;2022-11-20T00:21:50;22.45;;;7.22;;
22476;SDS011;65006;51.698;-0.292;2022-11-20T00:24:18;21.75;;;7.22;;
22476;SDS011;65006;51.698;-0.292;2022-11-20T00:26:44;22.90;;;8.48;;
22476;SDS011;65006;51.698;-0.292;2022-11-20T00:29:10;26.48;;;8.73;;
22476;SDS011;65006;51.698;-0.292;2022-11-20T00:31:36;19.88;;;7.88;;
22476;SDS011;65006;51.698;-0.292;2022-11-20T00:34:02;22.13;;;7.97;;
22476;SDS011;65006;51.698;-0.292;2022-11-20T00:36:31;18.23;;;7.18;;
22476;SDS011;65006;51.698;-0.292;2022-11-20T00:38:57;20.58;;;7.68;;
22476;SDS011;65006;51.698;-0.292;2022-11-20T00:41:24;19.80;;;8.55;;
22476;SDS011;65006;51.698;-0.292;2022-11-20T00:43:51;27.30;;;8.50;;
22476;SDS011;65006;51.698;-0.292;2022-11-20T00:46:18;17.98;;;7.30;;
22476;SDS011;65006;51.698;-0.292;2022-11-20T00:48:44;20.88;;;9.02;;
22476;SDS011;65006;51.698;-0.292;2022-11-20T00:51:11;19.90;;;8.38;;
22476;SDS011;65006;51.698;-0.292;2022-11-20T00:53:38;20.70;;;7.13;;
22476;SDS011;65006;51.698;-0.292;2022-11-20T00:56:05;23.75;;;8.05;;
22476;SDS011;65006;51.698;-0.292;2022-11-20T00:58:34;18.08;;;7.28;;
22476;SDS011;65006;51.698;-0.292;2022-11-20T01:01:05;19.83;;;7.53;;
22476;SDS011;65006;51.698;-0.292;2022-11-20T01:03:31;24.55;;;8.18;;
22476;SDS011;65006;51.698;-0.292;2022-11-20T01:06:09;20.35;;;8.07;;
22476;SDS011;65006;51.698;-0.292;2022-11-20T01:08:35;16.75;;;7.68;;
22476;SDS011;65006;51.698;-0.292;2022-11-20T01:11:03;17.08;;;7.40;;
22476;SDS011;65006;51.698;-0.292;2022-11-20T01:13:30;26.00;;;7.60;;
22476;SDS011;65006;51.698;-0.292;2022-11-20T01:16:15;19.00;;;7.70;;
22476;SDS011;65006;51.698;-0.292;2022-11-20T01:18:42;15.13;;;7.57;;
22476;SDS011;65006;51.698;-0.292;2022-11-20T01:21:13;18.73;;;7.03;;
22476;SDS011;65006;51.698;-0.292;2022-11-20T01:23:40;16.40;;;6.50;;
22476;SDS011;65006;51.698;-0.292;2022-11-20T01:26:07;14.00;;;6.50;;
22476;SDS011;65006;51.698;-0.292;2022-11-20T01:28:34;20.42;;;6.70;;
22476;SDS011;65006;51.698;-0.292;2022-11-20T01:31:00;14.13;;;6.28;;
22476;SDS011;65006;51.698;-0.292;2022-11-20T01:33:26;17.05;;;6.63;;
22476;SDS011;65006;51.698;-0.292;2022-11-20T01:35:52;13.13;;;5.65;;
22476;SDS011;65006;51.698;-0.292;2022-11-20T01:38:19;14.43;;;6.15;;
22476;SDS011;65006;51.698;-0.292;2022-11-20T01:40:53;13.90;;;5.63;;
22476;SDS011;65006;51.698;-0.292;2022-11-20T01:43:20;17.63;;;6.10;;
22476;SDS011;65006;51.698;-0.292;2022-11-20T01:48:12;14.02;;;5.03;;
22476;SDS011;65006;51.698;-0.292;2022-11-20T01:50:39;11.55;;;5.30;;
22476;SDS011;65006;51.698;-0.292;2022-11-20T01:53:06;9.88;;;4.75;;
22476;SDS011;65006;51.698;-0.292;2022-11-20T01:55:37;12.05;;;4.20;;
22476;SDS011;65006;51.698;-0.292;2022-11-20T01:58:05;14.05;;;4.70;;
22476;SDS011;65006;51.698;-0.292;2022-11-20T02:02:58;15.07;;;3.90;;
22476;SDS011;65006;51.698;-0.292;2022-11-20T02:07:57;18.00;;;3.53;;
22476;SDS011;65006;51.698;-0.292;2022-11-20T02:12:49;9.05;;;2.90;;
22476;SDS011;65006;51.698;-0.292;2022-11-20T02:15:34;11.25;;;3.28;;
22476;SDS011;65006;51.698;-0.292;2022-11-20T02:18:00;7.25;;;2.83;;
22476;SDS011;65006;51.698;-0.292;2022-11-20T02:20:26;9.63;;;2.70;;
22476;SDS011;65006;51.698;-0.292;2022-11-20T02:23:03;8.63;;;2.17;;
22476;SDS011;65006;51.698;-0.292;2022-11-20T02:25:30;5.38;;;2.47;;
22476;SDS011;65006;51.698;-0.292;2022-11-20T02:27:57;8.80;;;2.45;;
22476;SDS011;65006;51.698;-0.292;2022-11-20T02:30:24;7.75;;;2.38;;
22476;SDS011;65006;51.698;-0.292;2022-11-20T02:32:50;7.90;;;2.00;;
22476;SDS011;65006;51.698;-0.292;2022-11-20T02:37:47;9.20;;;2.83;;
22476;SDS011;65006;51.698;-0.292;2022-11-20T02:40:14;13.02;;;2.45;;
22476;SDS011;65006;51.698;-0.292;2022-11-20T02:42:40;7.38;;;2.33;;
22476;SDS011;65006;51.698;-0.292;2022-11-20T02:45:06;8.07;;;2.38;;
22476;SDS011;65006;51.698;-0.292;2022-11-20T02:47:33;9.68;;;2.22;;
22476;SDS011;65006;51.698;-0.292;2022-11-20T02:49:59;7.43;;;2.55;;
22476;SDS011;65006;51.698;-0.292;2022-11-20T02:52:25;6.95;;;2.45;;
22476;SDS011;65006;51.698;-0.292;2022-11-20T02:54:51;9.70;;;3.15;;
22476;SDS011;65006;51.698;-0.292;2022-11-20T02:57:17;12.70;;;2.67;;
22476;SDS011;65006;51.698;-0.292;2022-11-20T02:59:43;9.05;;;2.40;;
22476;SDS011;65006;51.698;-0.292;2022-11-20T03:02:09;4.80;;;2.25;;
22476;SDS011;65006;51.698;-0.292;2022-11-20T03:04:35;9.40;;;2.45;;
22476;SDS011;65006;51.698;-0.292;2022-11-20T03:07:01;8.60;;;2.40;;
22476;SDS011;65006;51.698;-0.292;2022-11-20T03:09:27;10.48;;;2.35;;
22476;SDS011;65006;51.698;-0.292;2022-11-20T03:11:53;6.68;;;3.30;;
22476;SDS011;65006;51.698;-0.292;2022-11-20T03:14:19;8.52;;;2.72;;
22476;SDS011;65006;51.698;-0.292;2022-11-20T03:16:45;6.82;;;3.00;;
22476;SDS011;65006;51.698;-0.292;2022-11-20T03:19:11;5.63;;;2.70;;
22476;SDS011;65006;51.698;-0.292;2022-11-20T03:21:38;4.60;;;2.17;;
22476;SDS011;65006;51.698;-0.292;2022-11-20T03:24:04;9.95;;;2.90;;
22476;SDS011;65006;51.698;-0.292;2022-11-20T03:26:30;13.60;;;2.83;;
22476;SDS011;65006;51.698;-0.292;2022-11-20T03:28:57;4.53;;;2.30;;
22476;SDS011;65006;51.698;-0.292;2022-11-20T03:31:24;7.22;;;2.67;;
22476;SDS011;65006;51.698;-0.292;2022-11-20T03:33:51;15.93;;;3.10;;
22476;SDS011;65006;51.698;-0.292;2022-11-20T03:36:17;14.32;;;3.05;;
22476;SDS011;65006;51.698;-0.292;2022-11-20T03:38:44;5.22;;;2.20;;
22476;SDS011;65006;51.698;-0.292;2022-11-20T03:41:11;8.80;;;2.97;;
22476;SDS011;65006;51.698;-0.292;2022-11-20T03:43:38;9.35;;;2.55;;
22476;SDS011;65006;51.698;-0.292;2022-11-20T03:46:04;7.97;;;2.78;;
22476;SDS011;65006;51.698;-0.292;2022-11-20T03:51:09;8.23;;;2.75;;
22476;SDS011;65006;51.698;-0.292;2022-11-20T03:53:36;8.30;;;2.40;;
22476;SDS011;65006;51.698;-0.292;2022-11-20T03:56:02;6.40;;;2.55;;
22476;SDS011;65006;51.698;-0.292;2022-11-20T03:58:28;8.82;;;2.95;;
22476;SDS011;65006;51.698;-0.292;2022-11-20T04:00:54;4.40;;;2.20;;
22476;SDS011;65006;51.698;-0.292;2022-11-20T04:03:20;5.57;;;2.40;;
22476;SDS011;65006;51.698;-0.292;2022-11-20T04:05:46;13.75;;;2.92;;
22476;SDS011;65006;51.698;-0.292;2022-11-20T04:08:12;10.50;;;2.33;;
22476;SDS011;65006;51.698;-0.292;2022-11-20T04:10:38;7.40;;;2.88;;
22476;SDS011;65006;51.698;-0.292;2022-11-20T04:13:04;7.65;;;2.75;;
22476;SDS011;65006;51.698;-0.292;2022-11-20T04:15:30;9.52;;;2.60;;
22476;SDS011;65006;51.698;-0.292;2022-11-20T04:17:56;12.15;;;2.95;;
22476;SDS011;65006;51.698;-0.292;2022-11-20T04:20:22;5.50;;;2.53;;
22476;SDS011;65006;51.698;-0.292;2022-11-20T04:22:48;8.23;;;2.72;;
22476;SDS011;65006;51.698;-0.292;2022-11-20T04:25:14;6.88;;;2.70;;
22476;SDS011;65006;51.698;-0.292;2022-11-20T04:27:40;6.18;;;2.55;;
22476;SDS011;65006;51.698;-0.292;2022-11-20T04:30:06;10.90;;;2.38;;
22476;SDS011;65006;51.698;-0.292;2022-11-20T04:32:32;6.65;;;2.25;;
22476;SDS011;65006;51.698;-0.292;2022-11-20T04:34:58;9.27;;;3.22;;
22476;SDS011;65006;51.698;-0.292;2022-11-20T04:37:24;8.23;;;2.72;;
22476;SDS011;65006;51.698;-0.292;2022-11-20T04:39:50;8.27;;;2.28;;
22476;SDS011;65006;51.698;-0.292;2022-11-20T04:42:16;10.02;;;2.53;;
22476;SDS011;65006;51.698;-0.292;2022-11-20T04:44:54;8.35;;;2.53;;
22476;SDS011;65006;51.698;-0.292;2022-11-20T04:47:20;8.02;;;2.38;;
22476;SDS011;65006;51.698;-0.292;2022-11-20T04:49:46;12.05;;;2.55;;
22476;SDS011;65006;51.698;-0.292;2022-11-20T04:52:13;12.48;;;3.03;;
22476;SDS011;65006;51.698;-0.292;2022-11-20T04:54:39;7.47;;;2.15;;
22476;SDS011;65006;51.698;-0.292;2022-11-20T04:57:05;7.13;;;2.53;;
22476;SDS011;65006;51.698;-0.292;2022-11-20T04:59:31;9.63;;;2.58;;
22476;SDS011;65006;51.698;-0.292;2022-11-20T05:01:57;9.27;;;2.83;;
22476;SDS011;65006;51.698;-0.292;2022-11-20T05:04:23;5.20;;;2.40;;
22476;SDS011;65006;51.698;-0.292;2022-11-20T05:06:49;7.70;;;2.78;;
22476;SDS011;65006;51.698;-0.292;2022-11-20T05:09:15;7.85;;;2.70;;
22476;SDS011;65006;51.698;-0.292;2022-11-20T05:11:41;8.10;;;2.72;;
22476;SDS011;65006;51.698;-0.292;2022-11-20T05:14:07;8.05;;;3.10;;
22476;SDS011;65006;51.698;-0.292;2022-11-20T05:16:34;9.00;;;2.80;;
22476;SDS011;65006;51.698;-0.292;2022-11-20T05:19:03;5.07;;;2.88;;
22476;SDS011;65006;51.698;-0.292;2022-11-20T05:21:32;5.95;;;2.53;;
22476;SDS011;65006;51.698;-0.292;2022-11-20T05:23:58;10.50;;;3.08;;
22476;SDS011;65006;51.698;-0.292;2022-11-20T05:26:24;8.23;;;2.92;;
22476;SDS011;65006;51.698;-0.292;2022-11-20T05:28:50;6.00;;;2.38;;
22476;SDS011;65006;51.698;-0.292;2022-11-20T05:31:18;5.68;;;3.17;;
22476;SDS011;65006;51.698;-0.292;2022-11-20T05:33:45;4.68;;;2.42;;
22476;SDS011;65006;51.698;-0.292;2022-11-20T05:36:11;5.25;;;2.83;;
22476;SDS011;65006;51.698;-0.292;2022-11-20T05:38:38;8.52;;;2.95;;
22476;SDS011;65006;51.698;-0.292;2022-11-20T05:41:08;10.60;;;2.38;;
22476;SDS011;65006;51.698;-0.292;2022-11-20T05:43:34;7.80;;;2.55;;
22476;SDS011;65006;51.698;-0.292;2022-11-20T05:48:27;7.60;;;3.00;;
22476;SDS011;65006;51.698;-0.292;2022-11-20T05:50:53;12.55;;;3.10;;
22476;SDS011;65006;51.698;-0.292;2022-11-20T05:53:19;5.20;;;3.00;;
22476;SDS011;65006;51.698;-0.292;2022-11-20T05:55:45;17.95;;;2.97;;
22476;SDS011;65006;51.698;-0.292;2022-11-20T05:58:10;6.38;;;3.03;;
22476;SDS011;65006;51.698;-0.292;2022-11-20T06:00:36;10.25;;;3.40;;
22476;SDS011;65006;51.698;-0.292;2022-11-20T06:03:02;8.98;;;2.70;;
22476;SDS011;65006;51.698;-0.292;2022-11-20T06:05:28;10.45;;;3.15;;
22476;SDS011;65006;51.698;-0.292;2022-11-20T06:07:54;8.43;;;2.88;;
22476;SDS011;65006;51.698;-0.292;2022-11-20T06:10:20;9.38;;;2.78;;
22476;SDS011;65006;51.698;-0.292;2022-11-20T06:12:46;6.30;;;2.78;;
22476;SDS011;65006;51.698;-0.292;2022-11-20T06:15:12;7.85;;;2.75;;
22476;SDS011;65006;51.698;-0.292;2022-11-20T06:17:38;8.63;;;2.67;;
22476;SDS011;65006;51.698;-0.292;2022-11-20T06:20:05;6.55;;;2.80;;
22476;SDS011;65006;51.698;-0.292;2022-11-20T06:22:31;4.93;;;2.70;;
22476;SDS011;65006;51.698;-0.292;2022-11-20T06:24:58;7.50;;;2.50;;
22476;SDS011;65006;51.698;-0.292;2022-11-20T06:27:24;6.90;;;2.70;;
22476;SDS011;65006;51.698;-0.292;2022-11-20T06:29:50;11.02;;;2.75;;
22476;SDS011;65006;51.698;-0.292;2022-11-20T06:32:16;9.07;;;2.50;;
22476;SDS011;65006;51.698;-0.292;2022-11-20T06:34:42;9.15;;;2.60;;
22476;SDS011;65006;51.698;-0.292;2022-11-20T06:37:08;8.38;;;2.90;;
22476;SDS011;65006;51.698;-0.292;2022-11-20T06:39:34;7.70;;;2.50;;
22476;SDS011;65006;51.698;-0.292;2022-11-20T06:42:00;5.75;;;2.38;;
22476;SDS011;65006;51.698;-0.292;2022-11-20T06:44:26;9.10;;;2.63;;
22476;SDS011;65006;51.698;-0.292;2022-11-20T06:46:52;4.30;;;2.38;;
22476;SDS011;65006;51.698;-0.292;2022-11-20T06:49:18;5.30;;;2.70;;
22476;SDS011;65006;51.698;-0.292;2022-11-20T06:51:44;7.40;;;2.88;;
22476;SDS011;65006;51.698;-0.292;2022-11-20T06:54:10;11.55;;;2.53;;
22476;SDS011;65006;51.698;-0.292;2022-11-20T06:56:36;6.65;;;2.63;;
22476;SDS011;65006;51.698;-0.292;2022-11-20T06:59:06;7.80;;;3.08;;
22476;SDS011;65006;51.698;-0.292;2022-11-20T07:01:32;4.05;;;1.83;;
22476;SDS011;65006;51.698;-0.292;2022-11-20T07:03:58;3.45;;;1.98;;
22476;SDS011;65006;51.698;-0.292;2022-11-20T07:06:24;8.63;;;1.65;;
22476;SDS011;65006;51.698;-0.292;2022-11-20T07:08:50;3.05;;;1.80;;
22476;SDS011;65006;51.698;-0.292;2022-11-20T07:11:17;6.25;;;1.95;;
22476;SDS011;65006;51.698;-0.292;2022-11-20T07:13:43;4.07;;;2.08;;
22476;SDS011;65006;51.698;-0.292;2022-11-20T07:16:09;5.05;;;1.70;;
22476;SDS011;65006;51.698;-0.292;2022-11-20T07:18:35;2.33;;;1.42;;
22476;SDS011;65006;51.698;-0.292;2022-11-20T07:21:06;2.83;;;1.80;;
22476;SDS011;65006;51.698;-0.292;2022-11-20T07:23:32;3.47;;;1.73;;
22476;SDS011;65006;51.698;-0.292;2022-11-20T07:26:02;3.90;;;1.77;;
22476;SDS011;65006;51.698;-0.292;2022-11-20T07:28:28;9.25;;;2.13;;
22476;SDS011;65006;51.698;-0.292;2022-11-20T07:30:54;5.93;;;2.20;;
22476;SDS011;65006;51.698;-0.292;2022-11-20T07:33:20;3.83;;;2.05;;
22476;SDS011;65006;51.698;-0.292;2022-11-20T07:35:46;7.10;;;1.85;;
22476;SDS011;65006;51.698;-0.292;2022-11-20T07:38:12;3.28;;;1.98;;
22476;SDS011;65006;51.698;-0.292;2022-11-20T07:40:38;4.10;;;2.13;;
22476;SDS011;65006;51.698;-0.292;2022-11-20T07:43:04;4.60;;;2.20;;
22476;SDS011;65006;51.698;-0.292;2022-11-20T07:45:30;5.60;;;2.30;;
22476;SDS011;65006;51.698;-0.292;2022-11-20T07:47:56;4.05;;;2.55;;
22476;SDS011;65006;51.698;-0.292;2022-11-20T07:50:22;4.70;;;2.42;;
22476;SDS011;65006;51.698;-0.292;2022-11-20T07:52:48;4.35;;;2.10;;
22476;SDS011;65006;51.698;-0.292;2022-11-20T07:55:14;5.22;;;2.50;;
22476;SDS011;65006;51.698;-0.292;2022-11-20T07:57:40;10.18;;;3.30;;
22476;SDS011;65006;51.698;-0.292;2022-11-20T08:00:07;6.95;;;3.63;;
22476;SDS011;65006;51.698;-0.292;2022-11-20T08:02:36;6.22;;;3.47;;
22476;SDS011;65006;51.698;-0.292;2022-11-20T08:05:02;3.78;;;2.50;;
22476;SDS011;65006;51.698;-0.292;2022-11-20T08:07:28;4.00;;;2.25;;
22476;SDS011;65006;51.698;-0.292;2022-11-20T08:09:54;4.05;;;2.30;;
22476;SDS011;65006;51.698;-0.292;2022-11-20T08:12:20;3.85;;;2.55;;
22476;SDS011;65006;51.698;-0.292;2022-11-20T08:15:06;5.28;;;2.40;;
22476;SDS011;65006;51.698;-0.292;2022-11-20T08:19:58;9.80;;;5.00;;
22476;SDS011;65006;51.698;-0.292;2022-11-20T08:22:24;8.90;;;3.85;;
22476;SDS011;65006;51.698;-0.292;2022-11-20T08:24:50;7.63;;;4.20;;
22476;SDS011;65006;51.698;-0.292;2022-11-20T08:27:16;8.70;;;3.80;;
22476;SDS011;65006;51.698;-0.292;2022-11-20T08:29:42;11.77;;;6.47;;
22476;SDS011;65006;51.698;-0.292;2022-11-20T08:32:08;9.48;;;4.43;;
22476;SDS011;65006;51.698;-0.292;2022-11-20T08:34:35;10.05;;;3.55;;
22476;SDS011;65006;51.698;-0.292;2022-11-20T08:37:01;5.68;;;3.30;;
22476;SDS011;65006;51.698;-0.292;2022-11-20T08:39:27;7.35;;;3.30;;
22476;SDS011;65006;51.698;-0.292;2022-11-20T08:41:53;9.77;;;3.88;;
22476;SDS011;65006;51.698;-0.292;2022-11-20T08:44:20;10.50;;;5.82;;
22476;SDS011;65006;51.698;-0.292;2022-11-20T08:46:46;11.45;;;4.03;;
22476;SDS011;65006;51.698;-0.292;2022-11-20T08:49:12;12.40;;;4.10;;
22476;SDS011;65006;51.698;-0.292;2022-11-20T08:51:39;4.32;;;3.50;;
22476;SDS011;65006;51.698;-0.292;2022-11-20T08:54:05;8.13;;;4.72;;
22476;SDS011;65006;51.698;-0.292;2022-11-20T08:56:31;8.02;;;3.53;;
22476;SDS011;65006;51.698;-0.292;2022-11-20T08:58:57;5.95;;;3.00;;
22476;SDS011;65006;51.698;-0.292;2022-11-20T09:01:26;14.85;;;5.63;;
22476;SDS011;65006;51.698;-0.292;2022-11-20T09:03:54;10.93;;;5.25;;
22476;SDS011;65006;51.698;-0.292;2022-11-20T09:06:21;14.90;;;6.47;;
22476;SDS011;65006;51.698;-0.292;2022-11-20T09:08:47;20.02;;;8.73;;
22476;SDS011;65006;51.698;-0.292;2022-11-20T09:11:14;9.93;;;3.50;;
22476;SDS011;65006;51.698;-0.292;2022-11-20T09:13:40;4.68;;;2.97;;
22476;SDS011;65006;51.698;-0.292;2022-11-20T09:16:06;8.13;;;3.35;;
22476;SDS011;65006;51.698;-0.292;2022-11-20T09:18:33;4.53;;;2.40;;
22476;SDS011;65006;51.698;-0.292;2022-11-20T09:21:04;6.40;;;2.40;;
22476;SDS011;65006;51.698;-0.292;2022-11-20T09:23:31;6.32;;;2.05;;
22476;SDS011;65006;51.698;-0.292;2022-11-20T09:25:58;9.57;;;2.08;;
22476;SDS011;65006;51.698;-0.292;2022-11-20T09:28:26;5.40;;;1.90;;
22476;SDS011;65006;51.698;-0.292;2022-11-20T09:30:52;4.65;;;1.73;;
22476;SDS011;65006;51.698;-0.292;2022-11-20T09:33:18;5.78;;;1.92;;
22476;SDS011;65006;51.698;-0.292;2022-11-20T09:35:44;5.70;;;2.00;;
22476;SDS011;65006;51.698;-0.292;2022-11-20T09:38:10;8.77;;;1.77;;
22476;SDS011;65006;51.698;-0.292;2022-11-20T09:40:38;7.72;;;2.17;;
22476;SDS011;65006;51.698;-0.292;2022-11-20T09:46:04;7.03;;;1.65;;
22476;SDS011;65006;51.698;-0.292;2022-11-20T09:56:40;8.50;;;2.03;;
22476;SDS011;65006;51.698;-0.292;2022-11-20T09:59:07;14.07;;;2.50;;
22476;SDS011;65006;51.698;-0.292;2022-11-20T10:01:36;8.98;;;1.70;;
22476;SDS011;65006;51.698;-0.292;2022-11-20T10:04:18;9.30;;;1.70;;
22476;SDS011;65006;51.698;-0.292;2022-11-20T10:09:31;16.55;;;1.98;;
22476;SDS011;65006;51.698;-0.292;2022-11-20T10:25:14;8.23;;;1.73;;
22476;SDS011;65006;51.698;-0.292;2022-11-20T10:30:14;7.90;;;1.63;;
22476;SDS011;65006;51.698;-0.292;2022-11-20T10:32:41;8.80;;;1.50;;
22476;SDS011;65006;51.698;-0.292;2022-11-20T10:35:24;12.52;;;1.45;;
22476;SDS011;65006;51.698;-0.292;2022-11-20T10:37:56;18.02;;;2.00;;
22476;SDS011;65006;51.698;-0.292;2022-11-20T10:42:51;10.90;;;1.95;;
22476;SDS011;65006;51.698;-0.292;2022-11-20T10:48:15;7.80;;;1.35;;
22476;SDS011;65006;51.698;-0.292;2022-11-20T10:50:40;16.27;;;1.77;;
22476;SDS011;65006;51.698;-0.292;2022-11-20T10:55:44;15.13;;;1.73;;
22476;SDS011;65006;51.698;-0.292;2022-11-20T10:58:14;13.75;;;1.83;;
22476;SDS011;65006;51.698;-0.292;2022-11-20T11:00:43;12.43;;;2.10;;
22476;SDS011;65006;51.698;-0.292;2022-11-20T11:03:28;12.05;;;2.13;;
22476;SDS011;65006;51.698;-0.292;2022-11-20T11:06:08;9.73;;;2.53;;
22476;SDS011;65006;51.698;-0.292;2022-11-20T11:08:40;16.48;;;2.17;;
22476;SDS011;65006;51.698;-0.292;2022-11-20T11:11:23;11.50;;;1.90;;
22476;SDS011;65006;51.698;-0.292;2022-11-20T11:13:49;17.95;;;2.33;;
22476;SDS011;65006;51.698;-0.292;2022-11-20T11:16:19;14.15;;;2.13;;
22476;SDS011;65006;51.698;-0.292;2022-11-20T11:18:46;8.48;;;2.05;;
22476;SDS011;65006;51.698;-0.292;2022-11-20T11:21:12;8.35;;;2.38;;
22476;SDS011;65006;51.698;-0.292;2022-11-20T11:23:42;15.07;;;2.00;;
22476;SDS011;65006;51.698;-0.292;2022-11-20T11:26:22;16.67;;;1.70;;
22476;SDS011;65006;51.698;-0.292;2022-11-20T11:31:24;10.98;;;2.58;;
22476;SDS011;65006;51.698;-0.292;2022-11-20T11:33:50;11.65;;;1.83;;
22476;SDS011;65006;51.698;-0.292;2022-11-20T11:36:17;16.75;;;1.70;;
22476;SDS011;65006;51.698;-0.292;2022-11-20T11:38:45;17.50;;;2.00;;
22476;SDS011;65006;51.698;-0.292;2022-11-20T11:41:53;11.48;;;1.45;;
22476;SDS011;65006;51.698;-0.292;2022-11-20T11:44:03;15.75;;;3.03;;
22476;SDS011;65006;51.698;-0.292;2022-11-20T11:57:46;17.88;;;1.92;;
22476;SDS011;65006;51.698;-0.292;2022-11-20T12:00:14;21.10;;;2.35;;
22476;SDS011;65006;51.698;-0.292;2022-11-20T12:07:42;16.17;;;1.83;;
22476;SDS011;65006;51.698;-0.292;2022-11-20T12:10:22;11.32;;;2.05;;
22476;SDS011;65006;51.698;-0.292;2022-11-20T12:12:56;16.90;;;1.92;;
22476;SDS011;65006;51.698;-0.292;2022-11-20T12:15:27;12.35;;;2.17;;
22476;SDS011;65006;51.698;-0.292;2022-11-20T12:17:55;11.82;;;2.03;;
22476;SDS011;65006;51.698;-0.292;2022-11-20T12:20:22;15.23;;;2.10;;
22476;SDS011;65006;51.698;-0.292;2022-11-20T12:25:22;14.80;;;1.58;;
22476;SDS011;65006;51.698;-0.292;2022-11-20T12:30:38;6.35;;;1.25;;
22476;SDS011;65006;51.698;-0.292;2022-11-20T12:35:58;11.23;;;1.75;;
22476;SDS011;65006;51.698;-0.292;2022-11-20T12:43:21;10.48;;;1.45;;
22476;SDS011;65006;51.698;-0.292;2022-11-20T12:46:08;7.15;;;1.10;;
22476;SDS011;65006;51.698;-0.292;2022-11-20T13:04:12;13.30;;;1.38;;
22476;SDS011;65006;51.698;-0.292;2022-11-20T13:06:40;9.02;;;1.58;;
22476;SDS011;65006;51.698;-0.292;2022-11-20T13:09:09;17.33;;;1.80;;
22476;SDS011;65006;51.698;-0.292;2022-11-20T14:48:18;8.77;;;1.45;;
22476;SDS011;65006;51.698;-0.292;2022-11-20T14:50:44;17.67;;;1.92;;
22476;SDS011;65006;51.698;-0.292;2022-11-20T14:53:10;9.95;;;1.67;;
22476;SDS011;65006;51.698;-0.292;2022-11-20T14:55:38;6.55;;;1.40;;
22476;SDS011;65006;51.698;-0.292;2022-11-20T14:58:05;9.73;;;1.27;;
22476;SDS011;65006;51.698;-0.292;2022-11-20T15:00:32;7.25;;;1.40;;
22476;SDS011;65006;51.698;-0.292;2022-11-20T15:02:58;11.77;;;1.75;;
22476;SDS011;65006;51.698;-0.292;2022-11-20T15:05:26;8.13;;;1.25;;
22476;SDS011;65006;51.698;-0.292;2022-11-20T15:08:04;11.18;;;1.65;;
22476;SDS011;65006;51.698;-0.292;2022-11-20T15:10:30;8.90;;;1.33;;
22476;SDS011;65006;51.698;-0.292;2022-11-20T15:13:00;10.40;;;2.00;;
22476;SDS011;65006;51.698;-0.292;2022-11-20T15:18:04;6.20;;;1.15;;
22476;SDS011;65006;51.698;-0.292;2022-11-20T15:20:32;6.78;;;1.75;;
22476;SDS011;65006;51.698;-0.292;2022-11-20T15:22:58;13.68;;;2.08;;
22476;SDS011;65006;51.698;-0.292;2022-11-20T15:25:24;9.90;;;1.33;;
22476;SDS011;65006;51.698;-0.292;2022-11-20T15:27:52;12.20;;;0.98;;
22476;SDS011;65006;51.698;-0.292;2022-11-20T15:30:19;9.07;;;1.30;;
22476;SDS011;65006;51.698;-0.292;2022-11-20T15:32:46;7.68;;;1.40;;
22476;SDS011;65006;51.698;-0.292;2022-11-20T15:35:13;11.20;;;1.67;;
22476;SDS011;65006;51.698;-0.292;2022-11-20T15:37:39;7.18;;;1.13;;
22476;SDS011;65006;51.698;-0.292;2022-11-20T15:42:31;4.78;;;1.30;;
22476;SDS011;65006;51.698;-0.292;2022-11-20T15:44:57;11.02;;;1.25;;
22476;SDS011;65006;51.698;-0.292;2022-11-20T15:47:33;13.05;;;1.52;;
22476;SDS011;65006;51.698;-0.292;2022-11-20T15:49:59;9.85;;;1.40;;
22476;SDS011;65006;51.698;-0.292;2022-11-20T15:52:25;15.60;;;1.25;;
22476;SDS011;65006;51.698;-0.292;2022-11-20T15:54:51;8.57;;;0.80;;
22476;SDS011;65006;51.698;-0.292;2022-11-20T15:57:17;14.48;;;1.13;;
22476;SDS011;65006;51.698;-0.292;2022-11-20T15:59:44;9.27;;;0.82;;
22476;SDS011;65006;51.698;-0.292;2022-11-20T16:02:13;5.03;;;1.55;;
22476;SDS011;65006;51.698;-0.292;2022-11-20T16:04:40;11.65;;;1.08;;
22476;SDS011;65006;51.698;-0.292;2022-11-20T16:07:06;11.48;;;1.30;;
22476;SDS011;65006;51.698;-0.292;2022-11-20T16:09:32;6.07;;;1.13;;
22476;SDS011;65006;51.698;-0.292;2022-11-20T16:11:58;5.30;;;1.40;;
22476;SDS011;65006;51.698;-0.292;2022-11-20T16:14:25;7.82;;;1.30;;
22476;SDS011;65006;51.698;-0.292;2022-11-20T16:17:10;10.85;;;1.30;;
22476;SDS011;65006;51.698;-0.292;2022-11-20T16:19:36;8.40;;;1.92;;
22476;SDS011;65006;51.698;-0.292;2022-11-20T16:22:02;8.00;;;1.60;;
22476;SDS011;65006;51.698;-0.292;2022-11-20T16:24:28;3.67;;;1.38;;
22476;SDS011;65006;51.698;-0.292;2022-11-20T16:26:55;7.28;;;1.20;;
22476;SDS011;65006;51.698;-0.292;2022-11-20T16:29:21;11.07;;;1.42;;
22476;SDS011;65006;51.698;-0.292;2022-11-20T16:31:47;5.03;;;1.30;;
22476;SDS011;65006;51.698;-0.292;2022-11-20T16:34:15;9.27;;;1.90;;
22476;SDS011;65006;51.698;-0.292;2022-11-20T16:36:41;6.82;;;1.40;;
22476;SDS011;65006;51.698;-0.292;2022-11-20T16:39:08;7.45;;;1.25;;
22476;SDS011;65006;51.698;-0.292;2022-11-20T16:41:34;3.95;;;1.27;;
22476;SDS011;65006;51.698;-0.292;2022-11-20T16:46:28;3.00;;;1.15;;
22476;SDS011;65006;51.698;-0.292;2022-11-20T16:48:59;8.50;;;2.13;;
22476;SDS011;65006;51.698;-0.292;2022-11-20T16:51:25;2.35;;;1.00;;
22476;SDS011;65006;51.698;-0.292;2022-11-20T16:53:52;5.18;;;1.13;;
22476;SDS011;65006;51.698;-0.292;2022-11-20T16:56:20;3.03;;;1.00;;
22476;SDS011;65006;51.698;-0.292;2022-11-20T16:58:47;3.65;;;1.15;;
22476;SDS011;65006;51.698;-0.292;2022-11-20T17:03:39;4.30;;;1.02;;
22476;SDS011;65006;51.698;-0.292;2022-11-20T17:08:38;4.88;;;1.10;;
22476;SDS011;65006;51.698;-0.292;2022-11-20T17:11:06;8.95;;;1.55;;
22476;SDS011;65006;51.698;-0.292;2022-11-20T17:13:33;2.25;;;1.30;;
22476;SDS011;65006;51.698;-0.292;2022-11-20T17:16:18;2.03;;;0.80;;
22476;SDS011;65006;51.698;-0.292;2022-11-20T17:18:44;3.90;;;1.30;;
22476;SDS011;65006;51.698;-0.292;2022-11-20T17:21:10;5.05;;;1.13;;
22476;SDS011;65006;51.698;-0.292;2022-11-20T17:23:37;5.40;;;1.40;;
22476;SDS011;65006;51.698;-0.292;2022-11-20T17:26:08;6.07;;;1.30;;
22476;SDS011;65006;51.698;-0.292;2022-11-20T17:28:34;7.20;;;1.17;;
22476;SDS011;65006;51.698;-0.292;2022-11-20T17:31:01;7.95;;;1.80;;
22476;SDS011;65006;51.698;-0.292;2022-11-20T17:35:53;5.93;;;1.63;;
22476;SDS011;65006;51.698;-0.292;2022-11-20T17:38:19;7.38;;;1.08;;
22476;SDS011;65006;51.698;-0.292;2022-11-20T17:40:45;6.35;;;1.25;;
22476;SDS011;65006;51.698;-0.292;2022-11-20T17:43:11;3.03;;;1.02;;
22476;SDS011;65006;51.698;-0.292;2022-11-20T17:45:37;5.25;;;1.20;;
22476;SDS011;65006;51.698;-0.292;2022-11-20T17:48:03;2.33;;;0.90;;
22476;SDS011;65006;51.698;-0.292;2022-11-20T17:50:29;4.20;;;0.68;;
22476;SDS011;65006;51.698;-0.292;2022-11-20T17:52:55;12.57;;;1.38;;
22476;SDS011;65006;51.698;-0.292;2022-11-20T17:55:21;3.00;;;0.82;;
22476;SDS011;65006;51.698;-0.292;2022-11-20T17:57:48;4.05;;;1.75;;
22476;SDS011;65006;51.698;-0.292;2022-11-20T18:00:17;9.32;;;1.58;;
22476;SDS011;65006;51.698;-0.292;2022-11-20T18:02:43;5.25;;;2.08;;
22476;SDS011;65006;51.698;-0.292;2022-11-20T18:05:09;5.97;;;1.17;;
22476;SDS011;65006;51.698;-0.292;2022-11-20T18:07:35;3.83;;;1.08;;
22476;SDS011;65006;51.698;-0.292;2022-11-20T18:10:02;13.10;;;4.15;;